createdAt,value
2017-12-12T00:02:18.924Z,29.30
2017-12-12T00:04:45.252Z,28.93
2017-12-12T00:07:11.578Z,27.77
2017-12-12T00:09:37.958Z,29.37
2017-12-12T00:12:04.284Z,29.43
2017-12-12T00:14:30.674Z,30.70
2017-12-12T00:16:57.036Z,29.07
2017-12-12T00:19:23.371Z,28.90
2017-12-12T00:21:49.696Z,30.90
2017-12-12T00:24:16.079Z,29.67
2017-12-12T00:26:42.408Z,30.63
2017-12-12T00:29:08.719Z,31.50
2017-12-12T00:31:35.091Z,32.43
2017-12-12T00:34:01.534Z,32.90
2017-12-12T00:36:27.881Z,33.20
2017-12-12T00:38:54.272Z,32.90
2017-12-12T00:41:20.605Z,34.80
2017-12-12T00:43:47.056Z,33.67
2017-12-12T00:46:13.428Z,34.07
2017-12-12T00:48:39.756Z,35.27
2017-12-12T00:51:06.079Z,33.97
2017-12-12T00:53:32.439Z,34.03
2017-12-12T00:55:58.783Z,34.70
2017-12-12T00:58:25.131Z,32.17
2017-12-12T01:00:51.500Z,30.90
2017-12-12T01:03:17.845Z,29.30
2017-12-12T01:05:44.165Z,29.87
2017-12-12T01:08:10.588Z,28.50
2017-12-12T01:10:36.929Z,25.87
2017-12-12T01:13:03.303Z,25.27
2017-12-12T01:15:29.668Z,23.53
2017-12-12T01:17:56.032Z,22.97
2017-12-12T01:20:22.426Z,22.97
2017-12-12T01:22:48.808Z,21.63
2017-12-12T01:25:15.128Z,19.13
2017-12-12T01:27:41.452Z,21.20
2017-12-12T01:30:07.815Z,20.10
2017-12-12T01:32:34.367Z,20.27
2017-12-12T01:35:00.688Z,21.00
2017-12-12T01:37:27.152Z,19.90
2017-12-12T01:39:53.511Z,20.83
2017-12-12T01:42:19.932Z,20.27
2017-12-12T01:44:46.460Z,21.43
2017-12-12T01:47:12.987Z,21.90
2017-12-12T01:49:39.381Z,23.47
2017-12-12T01:52:05.830Z,22.83
2017-12-12T01:54:32.332Z,22.73
2017-12-12T01:56:58.736Z,23.27
2017-12-12T01:59:25.191Z,24.20
2017-12-12T02:01:51.573Z,27.53
2017-12-12T02:04:18.060Z,27.43
2017-12-12T02:06:44.543Z,28.57
2017-12-12T02:09:10.967Z,30.50
2017-12-12T02:11:37.423Z,29.00
2017-12-12T02:14:03.888Z,29.60
2017-12-12T02:16:30.288Z,31.17
2017-12-12T02:18:56.672Z,30.30
2017-12-12T02:21:23.115Z,28.67
2017-12-12T02:23:49.519Z,29.87
2017-12-12T02:26:15.948Z,30.73
2017-12-12T02:28:42.415Z,28.83
2017-12-12T02:31:08.870Z,29.50
2017-12-12T02:33:35.296Z,28.20
2017-12-12T02:36:01.858Z,28.50
2017-12-12T02:38:28.272Z,25.70
2017-12-12T02:40:54.827Z,24.90
2017-12-12T02:43:21.283Z,26.53
2017-12-12T02:45:47.700Z,25.33
2017-12-12T02:48:14.120Z,26.37
2017-12-12T02:50:40.663Z,25.93
2017-12-12T02:53:07.097Z,25.33
2017-12-12T02:55:33.527Z,29.73
2017-12-12T02:58:00.013Z,28.80
2017-12-12T03:00:26.443Z,30.17
2017-12-12T03:02:52.863Z,31.30
2017-12-12T03:05:19.343Z,32.73
2017-12-12T03:07:45.773Z,33.27
2017-12-12T03:10:12.180Z,32.80
2017-12-12T03:12:38.648Z,32.40
2017-12-12T03:15:05.076Z,38.30
2017-12-12T03:17:31.632Z,36.83
2017-12-12T03:19:58.080Z,35.20
2017-12-12T03:22:24.505Z,34.70
2017-12-12T03:24:50.910Z,36.40
2017-12-12T03:27:17.392Z,36.47
2017-12-12T03:29:43.798Z,35.00
2017-12-12T03:32:10.210Z,33.37
2017-12-12T03:34:36.672Z,34.43
2017-12-12T03:37:03.073Z,31.87
2017-12-12T03:39:29.532Z,30.70
2017-12-12T03:41:56.001Z,27.47
2017-12-12T03:44:22.419Z,27.57
2017-12-12T03:46:48.806Z,29.07
2017-12-12T03:49:15.248Z,26.23
2017-12-12T03:51:41.663Z,23.60
2017-12-12T03:54:08.065Z,22.40
2017-12-12T03:56:34.536Z,23.40
2017-12-12T03:59:00.928Z,23.60
2017-12-12T04:01:27.343Z,23.67
2017-12-12T04:03:53.775Z,23.73
2017-12-12T04:06:20.174Z,24.43
2017-12-12T04:08:46.627Z,24.53
2017-12-12T04:11:13.072Z,23.70
2017-12-12T04:13:39.467Z,24.37
2017-12-12T04:16:05.872Z,23.73
2017-12-12T04:18:32.320Z,21.33
2017-12-12T04:20:58.720Z,21.13
2017-12-12T04:23:25.144Z,21.43
2017-12-12T04:25:51.595Z,19.80
2017-12-12T04:28:18.016Z,20.70
2017-12-12T04:30:44.656Z,18.90
2017-12-12T04:33:11.131Z,19.07
2017-12-12T04:35:37.548Z,19.63
2017-12-12T04:38:03.943Z,19.63
2017-12-12T04:40:30.388Z,19.07
2017-12-12T04:42:56.767Z,20.30
2017-12-12T04:45:23.158Z,19.57
2017-12-12T04:47:49.636Z,20.40
2017-12-12T04:50:16.019Z,18.50
2017-12-12T04:52:42.427Z,19.03
2017-12-12T04:55:08.876Z,20.47
2017-12-12T04:57:35.264Z,20.23
2017-12-12T05:00:01.677Z,22.87
2017-12-12T05:02:28.157Z,25.17
2017-12-12T05:04:54.568Z,25.80
2017-12-12T05:07:20.960Z,31.47
2017-12-12T05:09:47.417Z,33.67
2017-12-12T05:12:13.816Z,36.33
2017-12-12T05:14:40.325Z,36.50
2017-12-12T05:17:06.795Z,39.30
2017-12-12T05:19:33.295Z,44.60
2017-12-12T05:21:59.704Z,54.07
2017-12-12T05:24:26.104Z,50.17
2017-12-12T05:26:52.524Z,44.43
2017-12-12T05:29:18.960Z,39.47
2017-12-12T05:31:45.437Z,35.20
2017-12-12T05:34:11.893Z,35.83
2017-12-12T05:36:38.307Z,35.87
2017-12-12T05:39:04.797Z,36.30
2017-12-12T05:41:31.268Z,34.83
2017-12-12T05:43:57.734Z,34.97
2017-12-12T05:46:24.698Z,32.57
2017-12-12T05:48:51.092Z,32.83
2017-12-12T05:51:17.520Z,33.53
2017-12-12T05:53:43.997Z,31.37
2017-12-12T05:56:10.383Z,35.07
2017-12-12T05:58:36.843Z,34.97
2017-12-12T06:01:03.458Z,36.13
2017-12-12T06:03:30.080Z,37.30
2017-12-12T06:05:56.546Z,34.43
2017-12-12T06:08:23.018Z,33.60
2017-12-12T06:10:49.439Z,32.03
2017-12-12T06:13:15.847Z,35.17
2017-12-12T06:15:42.262Z,35.90
2017-12-12T06:18:08.694Z,35.07
2017-12-12T06:20:35.148Z,35.20
2017-12-12T06:23:01.616Z,36.07
2017-12-12T06:25:28.142Z,40.47
2017-12-12T06:27:55.035Z,51.00
2017-12-12T06:30:21.631Z,49.73
2017-12-12T06:32:48.057Z,48.60
2017-12-12T06:35:14.470Z,50.97
2017-12-12T06:37:40.920Z,52.70
2017-12-12T06:40:07.641Z,56.63
2017-12-12T06:42:34.074Z,58.90
2017-12-12T06:45:00.520Z,51.93
2017-12-12T06:47:27.043Z,108.47
2017-12-12T06:49:53.691Z,78.57
2017-12-12T06:52:20.249Z,61.17
2017-12-12T06:54:46.647Z,55.37
2017-12-12T06:57:13.056Z,61.23
2017-12-12T06:59:39.513Z,58.43
2017-12-12T07:02:05.921Z,59.50
2017-12-12T07:04:32.408Z,71.90
2017-12-12T07:06:58.972Z,70.33
2017-12-12T07:09:25.451Z,66.57
2017-12-12T07:11:51.936Z,71.07
2017-12-12T07:14:18.381Z,67.67
2017-12-12T07:16:44.840Z,78.37
2017-12-12T07:19:11.288Z,77.13
2017-12-12T07:21:37.752Z,73.27
2017-12-12T07:24:04.140Z,67.20
2017-12-12T07:26:30.572Z,60.80
2017-12-12T07:28:56.972Z,56.77
2017-12-12T07:31:23.332Z,51.60
2017-12-12T07:33:49.887Z,47.83
2017-12-12T07:36:16.308Z,46.97
2017-12-12T07:38:42.736Z,46.23
2017-12-12T07:41:09.101Z,46.27
2017-12-12T07:43:35.512Z,48.57
2017-12-12T07:46:01.950Z,45.50
2017-12-12T07:48:28.360Z,42.50
2017-12-12T07:50:54.768Z,42.73
2017-12-12T07:53:21.184Z,42.63
2017-12-12T07:55:47.587Z,43.97
2017-12-12T07:58:14.001Z,45.67
2017-12-12T08:00:40.395Z,44.03
2017-12-12T08:03:06.794Z,41.57
2017-12-12T08:05:33.246Z,43.27
2017-12-12T08:07:59.680Z,42.37
2017-12-12T08:10:26.108Z,43.00
2017-12-12T08:12:52.623Z,44.60
2017-12-12T08:15:18.985Z,44.73
2017-12-12T08:17:45.479Z,41.23
2017-12-12T08:20:11.912Z,41.47
2017-12-12T08:22:38.327Z,45.50
2017-12-12T08:25:04.706Z,42.03
2017-12-12T08:27:31.142Z,48.70
2017-12-12T08:29:57.524Z,51.57
2017-12-12T08:32:23.895Z,51.77
2017-12-12T08:34:50.646Z,45.87
2017-12-12T08:37:17.151Z,58.33
2017-12-12T08:39:43.508Z,61.73
2017-12-12T08:42:09.892Z,55.07
2017-12-12T08:44:36.348Z,63.50
2017-12-12T08:47:02.728Z,42.60
2017-12-12T08:49:29.149Z,54.17
2017-12-12T08:51:55.523Z,70.67
2017-12-12T08:54:21.876Z,50.90
2017-12-12T08:56:48.514Z,70.00
2017-12-12T08:59:14.932Z,42.67
2017-12-12T09:01:41.381Z,30.53
2017-12-12T09:04:07.796Z,26.33
2017-12-12T09:06:34.163Z,23.03
2017-12-12T09:09:00.508Z,21.27
2017-12-12T09:11:26.944Z,21.17
2017-12-12T09:13:53.291Z,23.93
2017-12-12T09:16:19.703Z,22.57
2017-12-12T09:18:46.928Z,21.90
2017-12-12T09:21:13.326Z,25.93
2017-12-12T09:23:39.689Z,27.57
2017-12-12T09:26:06.080Z,27.13
2017-12-12T09:28:32.485Z,28.20
2017-12-12T09:30:58.849Z,27.10
2017-12-12T09:33:25.321Z,27.47
2017-12-12T09:35:51.641Z,24.60
2017-12-12T09:38:18.084Z,21.70
2017-12-12T09:40:44.512Z,20.93
2017-12-12T09:43:10.864Z,21.97
2017-12-12T09:45:37.212Z,23.57
2017-12-12T09:48:03.644Z,19.67
2017-12-12T09:50:30.004Z,20.77
2017-12-12T09:52:56.375Z,24.83
2017-12-12T09:55:22.948Z,25.67
2017-12-12T09:57:49.448Z,25.17
2017-12-12T10:00:15.827Z,22.87
2017-12-12T10:02:42.272Z,22.00
2017-12-12T10:05:08.754Z,20.97
2017-12-12T10:07:35.140Z,21.33
2017-12-12T10:10:01.665Z,24.77
2017-12-12T10:12:28.032Z,23.33
2017-12-12T10:14:54.378Z,23.33
2017-12-12T10:17:20.791Z,22.93
2017-12-12T10:19:47.124Z,22.10
2017-12-12T10:22:13.466Z,22.60
2017-12-12T10:24:39.834Z,23.37
2017-12-12T10:27:06.196Z,23.20
2017-12-12T10:29:32.548Z,22.90
2017-12-12T10:31:58.932Z,22.97
2017-12-12T10:34:25.303Z,24.73
2017-12-12T10:36:51.712Z,23.60
2017-12-12T10:39:18.181Z,23.40
2017-12-12T10:41:44.606Z,21.17
2017-12-12T10:44:11.169Z,20.83
2017-12-12T10:46:37.652Z,18.80
2017-12-12T10:49:04.073Z,18.77
2017-12-12T10:51:30.516Z,16.90
2017-12-12T10:53:57.111Z,14.67
2017-12-12T10:56:23.520Z,14.17
2017-12-12T10:58:50.052Z,16.43
2017-12-12T11:01:16.522Z,14.70
2017-12-12T11:03:42.907Z,15.57
2017-12-12T11:06:09.374Z,16.60
2017-12-12T11:08:35.734Z,17.87
2017-12-12T11:11:02.077Z,15.90
2017-12-12T11:13:28.405Z,15.70
2017-12-12T11:15:55.084Z,15.87
2017-12-12T11:18:21.746Z,15.43
2017-12-12T11:20:48.088Z,14.70
2017-12-12T11:23:14.529Z,14.43
2017-12-12T11:25:41.045Z,16.53
2017-12-12T11:28:07.463Z,18.10
2017-12-12T11:30:34.116Z,14.83
2017-12-12T11:33:00.548Z,16.33
2017-12-12T11:35:26.982Z,17.50
2017-12-12T11:37:53.545Z,16.90
2017-12-12T11:40:20.053Z,17.77
2017-12-12T11:42:46.404Z,18.60
2017-12-12T11:45:12.842Z,18.70
2017-12-12T11:47:39.423Z,16.80
2017-12-12T11:50:06.298Z,19.27
2017-12-12T11:52:32.788Z,18.93
2017-12-12T11:54:59.182Z,20.13
2017-12-12T11:57:25.702Z,19.30
2017-12-12T11:59:52.213Z,19.40
2017-12-12T12:02:18.689Z,18.33
2017-12-12T12:04:45.140Z,19.57
2017-12-12T12:07:11.821Z,22.00
2017-12-12T12:09:38.292Z,22.30
2017-12-12T12:12:04.760Z,22.03
2017-12-12T12:14:31.239Z,22.70
2017-12-12T12:16:57.653Z,22.77
2017-12-12T12:19:24.080Z,22.87
2017-12-12T12:21:50.504Z,22.23
2017-12-12T12:24:16.978Z,22.73
2017-12-12T12:26:43.496Z,20.77
2017-12-12T12:29:09.918Z,19.97
2017-12-12T12:31:36.363Z,19.50
2017-12-12T12:34:02.799Z,18.90
2017-12-12T12:36:29.272Z,17.20
2017-12-12T12:38:55.937Z,18.10
2017-12-12T12:41:22.380Z,19.83
2017-12-12T12:43:48.828Z,19.67
2017-12-12T12:46:15.226Z,22.33
2017-12-12T12:48:41.747Z,20.63
2017-12-12T12:51:09.190Z,18.90
2017-12-12T12:53:35.581Z,18.80
2017-12-12T12:56:02.005Z,19.73
2017-12-12T12:58:28.477Z,17.87
2017-12-12T13:00:54.861Z,20.83
2017-12-12T13:03:21.265Z,17.30
2017-12-12T13:05:47.670Z,17.90
2017-12-12T13:08:14.208Z,18.20
2017-12-12T13:10:40.612Z,21.57
2017-12-12T13:13:07.020Z,18.57
2017-12-12T13:15:33.384Z,17.83
2017-12-12T13:17:59.724Z,19.03
2017-12-12T13:20:26.537Z,16.77
2017-12-12T13:22:52.941Z,18.37
2017-12-12T13:25:19.345Z,19.13
2017-12-12T13:27:45.882Z,20.23
2017-12-12T13:30:12.384Z,19.90
2017-12-12T13:32:39.054Z,19.03
2017-12-12T13:35:05.460Z,19.60
2017-12-12T13:37:31.836Z,22.20
2017-12-12T13:39:58.252Z,21.47
2017-12-12T13:42:24.684Z,26.80
2017-12-12T13:44:51.119Z,26.30
2017-12-12T13:47:17.757Z,25.33
2017-12-12T13:49:44.220Z,27.57
2017-12-12T13:52:10.600Z,32.43
2017-12-12T13:54:36.932Z,31.60
2017-12-12T13:57:03.313Z,36.00
2017-12-12T13:59:29.632Z,34.77
2017-12-12T14:01:56.107Z,32.37
2017-12-12T14:04:22.488Z,31.63
2017-12-12T14:06:48.842Z,32.73
2017-12-12T14:09:15.172Z,32.00
2017-12-12T14:11:41.537Z,38.33
2017-12-12T14:14:07.884Z,41.30
2017-12-12T14:16:34.261Z,42.77
2017-12-12T14:19:00.775Z,39.40
2017-12-12T14:21:27.099Z,47.33
2017-12-12T14:23:53.437Z,46.87
2017-12-12T14:26:19.870Z,50.30
2017-12-12T14:28:46.195Z,50.57
2017-12-12T14:31:12.516Z,55.60
2017-12-12T14:33:39.987Z,52.00
2017-12-12T14:36:06.423Z,52.43
2017-12-12T14:38:32.753Z,53.27
2017-12-12T14:40:59.140Z,52.93
2017-12-12T14:43:25.524Z,51.50
2017-12-12T14:45:51.872Z,52.20
2017-12-12T14:48:18.257Z,62.53
2017-12-12T14:50:44.597Z,65.47
2017-12-12T14:53:10.977Z,65.83
2017-12-12T14:55:37.363Z,59.83
2017-12-12T15:22:13.494Z,82.00
2017-12-12T15:24:39.823Z,80.33
2017-12-12T15:27:06.262Z,86.57
2017-12-12T15:29:32.679Z,85.93
2017-12-12T15:31:59.007Z,84.00
2017-12-12T15:34:26.274Z,88.27
2017-12-12T15:36:52.697Z,89.47
2017-12-12T15:39:20.230Z,84.77
2017-12-12T15:41:46.704Z,86.60
2017-12-12T15:44:13.124Z,81.40
2017-12-12T15:46:39.445Z,76.77
2017-12-12T15:49:05.771Z,77.53
2017-12-12T15:51:32.180Z,83.57
2017-12-12T15:53:58.588Z,75.23
2017-12-12T15:56:24.919Z,73.30
2017-12-12T15:58:51.297Z,78.37
2017-12-12T16:01:17.880Z,93.70
2017-12-12T16:03:44.220Z,115.73
2017-12-12T16:06:10.627Z,119.57
2017-12-12T16:08:37.551Z,130.97
2017-12-12T16:11:04.244Z,140.43
2017-12-12T16:13:30.814Z,153.57
2017-12-12T16:15:57.351Z,155.17
2017-12-12T16:18:23.780Z,155.27
2017-12-12T16:20:50.251Z,150.27
2017-12-12T16:23:16.805Z,97.73
2017-12-12T16:25:43.322Z,135.37
2017-12-12T16:28:09.683Z,141.83
2017-12-12T16:30:36.086Z,140.70
2017-12-12T16:33:02.476Z,137.33
2017-12-12T16:35:28.920Z,137.07
2017-12-12T16:37:55.364Z,134.07
2017-12-12T16:40:22.015Z,133.00
2017-12-12T16:42:49.246Z,135.17
2017-12-12T16:45:15.626Z,142.30
2017-12-12T16:47:42.112Z,144.60
2017-12-12T16:50:08.512Z,129.63
2017-12-12T16:52:34.891Z,146.97
2017-12-12T16:55:01.233Z,148.07
2017-12-12T16:57:27.616Z,152.40
2017-12-12T16:59:54.014Z,161.50
2017-12-12T17:02:20.559Z,167.40
2017-12-12T17:04:47.230Z,166.47
2017-12-12T17:07:13.578Z,155.17
2017-12-12T17:09:39.909Z,146.17
2017-12-12T17:12:06.332Z,151.93
2017-12-12T17:14:32.948Z,154.53
2017-12-12T17:16:59.651Z,144.67
2017-12-12T17:19:26.141Z,140.63
2017-12-12T17:21:52.545Z,139.70
2017-12-12T17:24:18.959Z,141.13
2017-12-12T17:26:46.574Z,140.73
2017-12-12T17:29:13.309Z,150.67
2017-12-12T17:31:39.697Z,150.60
2017-12-12T17:34:06.081Z,144.87
2017-12-12T17:36:32.428Z,127.90
2017-12-12T17:38:58.767Z,126.90
2017-12-12T17:41:25.159Z,129.70
2017-12-12T17:43:51.584Z,131.23
2017-12-12T17:46:17.940Z,129.77
2017-12-12T17:48:44.340Z,124.67
2017-12-12T17:51:10.664Z,122.10
2017-12-12T17:53:37.721Z,117.33
2017-12-12T17:56:04.188Z,122.70
2017-12-12T17:58:30.532Z,122.17
2017-12-12T18:00:56.917Z,130.87
2017-12-12T18:03:23.468Z,133.40
2017-12-12T18:05:49.879Z,132.13
2017-12-12T18:08:17.835Z,129.73
2017-12-12T18:10:44.587Z,131.30
2017-12-12T18:13:13.208Z,133.70
2017-12-12T18:15:40.337Z,140.50
2017-12-12T18:18:07.078Z,138.73
2017-12-12T18:20:34.121Z,134.67
2017-12-12T18:23:00.505Z,134.27
2017-12-12T18:25:27.871Z,125.63
2017-12-12T18:27:54.934Z,127.57
2017-12-12T18:30:26.784Z,126.27
2017-12-12T18:32:53.320Z,125.17
2017-12-12T18:35:19.687Z,123.87
2017-12-12T18:37:46.077Z,128.03
2017-12-12T18:40:12.640Z,135.83
2017-12-12T18:42:38.973Z,135.57
2017-12-12T18:45:05.340Z,134.80
2017-12-12T18:47:31.752Z,139.23
2017-12-12T18:49:58.088Z,133.80
2017-12-12T18:52:24.480Z,137.90
2017-12-12T18:54:50.852Z,142.37
2017-12-12T18:57:17.180Z,142.10
2017-12-12T18:59:43.543Z,141.97
2017-12-12T19:02:09.975Z,153.70
2017-12-12T19:04:36.412Z,149.10
2017-12-12T19:07:02.761Z,153.70
2017-12-12T19:09:29.144Z,174.47
2017-12-12T19:11:55.524Z,163.93
2017-12-12T19:14:21.877Z,163.87
2017-12-12T19:16:48.336Z,160.03
2017-12-12T19:19:14.756Z,168.40
2017-12-12T19:21:41.160Z,176.17
2017-12-12T19:24:07.619Z,176.20
2017-12-12T19:26:34.000Z,171.37
2017-12-12T19:29:00.496Z,168.97
2017-12-12T19:31:27.028Z,165.57
2017-12-12T19:33:53.598Z,157.57
2017-12-12T19:36:20.024Z,161.17
2017-12-12T19:38:46.476Z,163.20
2017-12-12T19:41:12.847Z,166.27
2017-12-12T19:43:39.216Z,163.50
2017-12-12T19:46:05.642Z,171.13
2017-12-12T19:48:32.029Z,173.30
2017-12-12T19:50:58.436Z,174.10
2017-12-12T19:53:24.900Z,173.07
2017-12-12T19:55:51.313Z,175.57
2017-12-12T19:58:17.684Z,172.40
2017-12-12T20:00:44.132Z,165.63
2017-12-12T20:03:11.282Z,169.83
2017-12-12T20:05:37.884Z,184.50
2017-12-12T20:08:04.626Z,180.77
2017-12-12T20:10:31.224Z,185.17
2017-12-12T20:12:57.607Z,195.33
2017-12-12T20:15:24.127Z,212.63
2017-12-12T20:17:50.577Z,210.93
2017-12-12T20:20:16.988Z,213.43
2017-12-12T20:22:43.388Z,202.10
2017-12-12T20:25:09.757Z,195.83
2017-12-12T20:27:36.217Z,176.87
2017-12-12T20:30:02.660Z,161.17
2017-12-12T20:32:29.039Z,147.50
2017-12-12T20:34:55.359Z,136.43
2017-12-12T20:37:21.740Z,120.07
2017-12-12T20:39:48.276Z,114.27
2017-12-12T20:42:14.611Z,107.33
2017-12-12T20:44:41.044Z,106.80
2017-12-12T20:47:07.372Z,101.90
2017-12-12T20:49:33.916Z,88.13
2017-12-12T20:52:00.321Z,81.70
2017-12-12T20:54:26.648Z,80.83
2017-12-12T20:56:53.163Z,80.20
2017-12-12T20:59:19.587Z,81.77
2017-12-12T21:01:45.927Z,86.90
2017-12-12T21:04:12.267Z,90.10
2017-12-12T21:06:38.644Z,88.23
2017-12-12T21:09:05.104Z,90.70
2017-12-12T21:11:31.528Z,87.80
2017-12-12T21:13:58.001Z,93.73
2017-12-12T21:16:24.373Z,99.83
2017-12-12T21:18:50.756Z,97.20
2017-12-12T21:21:17.153Z,101.10
2017-12-12T21:23:43.496Z,100.30
2017-12-12T21:26:09.891Z,102.93
2017-12-12T21:28:36.280Z,102.97
2017-12-12T21:31:02.623Z,105.10
2017-12-12T21:33:29.187Z,111.87
2017-12-12T21:35:55.631Z,117.43
2017-12-12T21:38:21.967Z,114.77
2017-12-12T21:40:48.369Z,114.17
2017-12-12T21:43:14.784Z,107.97
2017-12-12T21:45:41.242Z,110.00
2017-12-12T21:48:07.669Z,110.47
2017-12-12T21:50:34.480Z,107.07
2017-12-12T21:53:00.828Z,96.03
2017-12-12T21:55:27.173Z,87.93
2017-12-12T21:57:53.547Z,82.50
2017-12-12T22:00:19.909Z,76.13
2017-12-12T22:02:46.340Z,75.93
2017-12-12T22:05:12.733Z,68.23
2017-12-12T22:07:39.088Z,62.83
2017-12-12T22:10:05.569Z,60.07
2017-12-12T22:12:31.975Z,58.50
2017-12-12T22:14:58.435Z,56.57
2017-12-12T22:17:25.332Z,55.60
2017-12-12T22:19:51.728Z,57.67
2017-12-12T22:22:18.064Z,57.13
2017-12-12T22:24:44.412Z,57.07
2017-12-12T22:27:10.816Z,61.57
2017-12-12T22:29:37.152Z,62.77
2017-12-12T22:32:03.537Z,67.20
2017-12-12T22:34:29.914Z,67.23
2017-12-12T22:36:56.220Z,68.40
2017-12-12T22:39:22.536Z,69.27
2017-12-12T22:41:48.911Z,75.77
2017-12-12T22:44:15.243Z,78.03
2017-12-12T22:46:41.620Z,82.17
2017-12-12T22:49:08.109Z,78.20
2017-12-12T22:51:34.444Z,77.47
2017-12-12T22:54:00.771Z,79.40
2017-12-12T22:56:27.188Z,85.90
2017-12-12T22:58:53.504Z,86.63
2017-12-12T23:01:19.881Z,84.17
2017-12-12T23:03:46.383Z,91.00
2017-12-12T23:06:12.692Z,93.50
2017-12-12T23:08:39.003Z,93.73
2017-12-12T23:11:05.580Z,92.87
2017-12-12T23:13:31.896Z,93.17
2017-12-12T23:15:58.566Z,98.43
2017-12-12T23:18:24.981Z,96.80
2017-12-12T23:20:51.292Z,97.37
2017-12-12T23:23:17.679Z,97.97
2017-12-12T23:25:44.075Z,89.00
2017-12-12T23:28:10.511Z,88.63
2017-12-12T23:30:36.916Z,84.63
2017-12-12T23:33:03.364Z,86.60
2017-12-12T23:35:29.708Z,85.57
2017-12-12T23:37:56.048Z,86.00
2017-12-12T23:40:22.408Z,79.43
2017-12-12T23:42:48.736Z,75.20
2017-12-12T23:45:15.967Z,73.67
2017-12-12T23:47:42.351Z,70.30
2017-12-12T23:50:08.684Z,70.93
2017-12-12T23:52:35.008Z,68.70
2017-12-12T23:55:01.526Z,64.00
2017-12-12T23:57:27.850Z,60.47
2017-12-12T23:59:54.245Z,55.87
